createdAt,value
2022-12-18T00:02:13.583Z,122.60
2022-12-18T00:04:40.425Z,120.05
2022-12-18T00:07:07.529Z,118.35
2022-12-18T00:09:40.041Z,111.82
2022-12-18T00:14:45.635Z,120.57
2022-12-18T00:17:12.363Z,122.78
2022-12-18T00:19:39.048Z,117.57
2022-12-18T00:22:07.094Z,116.85
2022-12-18T00:24:33.863Z,113.65
2022-12-18T00:27:00.478Z,117.50
2022-12-18T00:29:27.243Z,112.68
2022-12-18T00:31:53.998Z,122.32
2022-12-18T00:34:20.695Z,112.15
2022-12-18T00:36:48.790Z,109.38
2022-12-18T00:39:15.602Z,113.07
2022-12-18T00:42:03.694Z,116.30
2022-12-18T00:44:31.864Z,116.25
2022-12-18T00:46:58.664Z,112.13
2022-12-18T00:49:25.457Z,124.63
2022-12-18T00:51:52.254Z,122.72
2022-12-18T00:54:21.762Z,114.97
2022-12-18T00:56:49.740Z,120.97
2022-12-18T00:59:18.753Z,117.07
2022-12-18T01:01:46.297Z,112.18
2022-12-18T01:04:13.144Z,118.63
2022-12-18T01:06:39.825Z,124.97
2022-12-18T01:09:07.181Z,114.72
2022-12-18T01:11:36.745Z,124.38
2022-12-18T01:14:04.595Z,118.88
2022-12-18T01:16:34.357Z,123.82
2022-12-18T01:19:01.086Z,115.72
2022-12-18T01:21:28.152Z,116.18
2022-12-18T01:23:57.004Z,125.53
2022-12-18T01:26:25.645Z,114.90
2022-12-18T01:28:52.548Z,124.15
2022-12-18T01:31:23.544Z,114.60
2022-12-18T01:33:52.134Z,117.97
2022-12-18T01:36:26.688Z,115.82
2022-12-18T01:38:54.260Z,121.03
2022-12-18T01:41:24.875Z,111.00
2022-12-18T01:43:58.812Z,110.55
2022-12-18T01:46:27.157Z,121.57
2022-12-18T01:49:02.368Z,117.57
2022-12-18T01:51:31.808Z,110.85
2022-12-18T01:53:59.222Z,110.75
2022-12-18T01:56:25.947Z,114.07
2022-12-18T01:59:06.636Z,126.90
2022-12-18T02:01:34.217Z,125.68
2022-12-18T02:04:26.791Z,114.30
2022-12-18T02:07:24.617Z,119.25
2022-12-18T02:10:12.900Z,111.70
2022-12-18T02:12:56.808Z,113.38
2022-12-18T02:15:41.649Z,110.28
2022-12-18T02:18:31.438Z,138.57
2022-12-18T02:21:11.703Z,109.90
2022-12-18T02:23:47.528Z,110.57
2022-12-18T02:26:37.414Z,118.72
2022-12-18T02:29:17.537Z,115.85
2022-12-18T02:31:54.564Z,104.45
2022-12-18T02:34:25.953Z,117.88
2022-12-18T02:36:55.906Z,109.18
2022-12-18T02:39:24.739Z,110.40
2022-12-18T02:42:00.692Z,106.30
2022-12-18T02:44:27.696Z,110.00
2022-12-18T02:46:55.696Z,114.43
2022-12-18T02:49:47.570Z,117.07
2022-12-18T02:52:58.250Z,113.90
2022-12-18T02:55:54.055Z,107.40
2022-12-18T02:58:46.450Z,127.25
2022-12-18T03:01:34.574Z,109.47
2022-12-18T03:04:10.784Z,113.80
2022-12-18T03:06:44.500Z,113.47
2022-12-18T03:09:35.545Z,108.68
2022-12-18T03:12:25.561Z,110.80
2022-12-18T03:15:20.626Z,111.88
2022-12-18T03:18:03.945Z,119.15
2022-12-18T03:20:33.745Z,116.60
2022-12-18T03:23:15.297Z,109.00
2022-12-18T03:25:48.341Z,122.45
2022-12-18T03:28:20.314Z,123.60
2022-12-18T03:30:57.669Z,117.13
2022-12-18T03:33:33.610Z,124.20
2022-12-18T03:36:00.282Z,116.43
2022-12-18T03:38:27.706Z,118.55
2022-12-18T03:41:06.016Z,118.43
2022-12-18T03:43:53.155Z,114.53
2022-12-18T03:46:27.378Z,112.30
2022-12-18T03:49:02.594Z,112.72
2022-12-18T03:51:40.556Z,116.50
2022-12-18T03:54:10.111Z,115.00
2022-12-18T03:56:50.798Z,119.67
2022-12-18T03:59:19.227Z,115.70
2022-12-18T04:01:53.887Z,115.97
2022-12-18T04:04:23.151Z,109.13
2022-12-18T04:06:51.859Z,124.60
2022-12-18T04:09:20.648Z,113.70
2022-12-18T04:11:48.754Z,110.75
2022-12-18T04:14:18.273Z,124.25
2022-12-18T04:16:46.289Z,127.45
2022-12-18T04:19:16.349Z,110.47
2022-12-18T04:21:44.842Z,109.10
2022-12-18T04:24:13.749Z,114.28
2022-12-18T04:26:46.969Z,109.43
2022-12-18T04:29:17.283Z,116.28
2022-12-18T04:31:44.203Z,117.00
2022-12-18T04:34:11.409Z,121.10
2022-12-18T04:36:43.995Z,104.18
2022-12-18T04:39:10.867Z,120.28
2022-12-18T04:41:37.734Z,116.05
2022-12-18T04:44:05.855Z,123.88
2022-12-18T04:46:32.554Z,111.60
2022-12-18T04:48:59.242Z,124.00
2022-12-18T04:51:26.868Z,113.40
2022-12-18T04:53:54.577Z,106.53
2022-12-18T04:56:21.729Z,109.20
2022-12-18T04:58:48.479Z,114.57
2022-12-18T05:01:17.043Z,113.05
2022-12-18T05:03:44.394Z,119.38
2022-12-18T05:06:11.718Z,125.97
2022-12-18T05:08:38.397Z,113.55
2022-12-18T05:11:07.918Z,113.75
2022-12-18T05:13:35.917Z,121.68
2022-12-18T05:16:03.643Z,109.93
2022-12-18T05:18:30.465Z,120.80
2022-12-18T05:20:57.349Z,111.88
2022-12-18T05:23:25.237Z,123.00
2022-12-18T05:25:57.463Z,110.25
2022-12-18T05:28:26.046Z,106.50
2022-12-18T05:30:55.279Z,123.30
2022-12-18T05:33:23.306Z,122.25
2022-12-18T05:35:58.547Z,109.07
2022-12-18T05:38:27.131Z,103.83
2022-12-18T05:40:54.225Z,109.32
2022-12-18T05:43:22.877Z,106.07
2022-12-18T05:45:50.124Z,128.93
2022-12-18T05:48:17.883Z,108.45
2022-12-18T05:50:46.732Z,112.10
2022-12-18T05:53:15.580Z,108.90
2022-12-18T05:55:43.449Z,123.05
2022-12-18T05:58:12.325Z,120.70
2022-12-18T06:00:41.981Z,117.38
2022-12-18T06:03:11.302Z,115.55
2022-12-18T06:05:40.359Z,119.07
2022-12-18T06:08:07.106Z,118.75
2022-12-18T06:10:34.323Z,126.53
2022-12-18T06:13:01.468Z,112.38
2022-12-18T06:15:28.154Z,113.28
2022-12-18T06:17:54.779Z,111.00
2022-12-18T06:20:21.747Z,110.80
2022-12-18T06:22:48.588Z,109.03
2022-12-18T06:25:15.338Z,108.97
2022-12-18T06:27:42.079Z,113.50
2022-12-18T06:30:10.366Z,114.78
2022-12-18T06:32:37.113Z,112.15
2022-12-18T06:35:04.911Z,116.10
2022-12-18T06:37:32.805Z,111.68
2022-12-18T06:39:59.482Z,113.47
2022-12-18T06:42:26.228Z,115.50
2022-12-18T06:44:52.867Z,121.57
2022-12-18T06:47:19.766Z,111.13
2022-12-18T06:49:46.467Z,111.60
2022-12-18T06:52:13.211Z,107.25
2022-12-18T06:54:39.915Z,111.68
2022-12-18T06:57:06.791Z,120.55
2022-12-18T06:59:33.796Z,130.40
2022-12-18T07:02:00.553Z,123.30
2022-12-18T07:04:31.280Z,140.07
2022-12-18T07:06:58.478Z,142.05
2022-12-18T07:09:25.537Z,138.05
2022-12-18T07:11:52.887Z,121.13
2022-12-18T07:14:19.691Z,125.75
2022-12-18T07:16:46.409Z,126.82
2022-12-18T07:19:13.120Z,126.68
2022-12-18T07:21:39.768Z,117.35
2022-12-18T07:24:07.032Z,118.28
2022-12-18T07:26:33.789Z,123.68
2022-12-18T07:29:00.558Z,127.13
2022-12-18T07:31:28.348Z,132.50
2022-12-18T07:33:56.022Z,199.10
2022-12-18T07:36:22.648Z,118.88
2022-12-18T07:38:50.462Z,133.20
2022-12-18T07:41:17.394Z,136.02
2022-12-18T07:43:44.543Z,128.40
2022-12-18T07:46:14.771Z,131.13
2022-12-18T07:48:42.824Z,131.88
2022-12-18T07:51:13.561Z,125.28
2022-12-18T07:53:41.212Z,139.32
2022-12-18T07:56:30.297Z,123.45
2022-12-18T07:58:58.617Z,130.63
2022-12-18T08:01:26.001Z,133.82
2022-12-18T08:03:52.870Z,127.97
2022-12-18T08:06:19.665Z,116.80
2022-12-18T08:08:55.527Z,115.80
2022-12-18T08:11:24.325Z,117.95
2022-12-18T08:13:51.189Z,112.22
2022-12-18T08:16:18.814Z,118.70
2022-12-18T08:18:46.415Z,119.05
2022-12-18T08:21:16.093Z,126.38
2022-12-18T08:23:43.728Z,116.90
2022-12-18T08:26:11.978Z,114.57
2022-12-18T08:28:38.871Z,124.50
2022-12-18T08:31:06.164Z,121.03
2022-12-18T08:33:33.435Z,115.78
2022-12-18T08:36:01.110Z,109.57
2022-12-18T08:38:28.038Z,127.22
2022-12-18T08:41:09.784Z,117.00
2022-12-18T08:43:55.047Z,115.20
2022-12-18T08:46:23.393Z,120.30
2022-12-18T08:48:52.792Z,116.70
2022-12-18T08:51:20.483Z,126.32
2022-12-18T08:53:48.103Z,132.30
2022-12-18T08:56:15.695Z,128.05
2022-12-18T08:58:42.867Z,120.18
2022-12-18T09:01:11.411Z,126.28
2022-12-18T09:03:39.237Z,133.82
2022-12-18T09:06:06.742Z,124.38
2022-12-18T09:08:33.662Z,129.55
2022-12-18T09:11:00.436Z,130.07
2022-12-18T09:13:27.395Z,123.63
2022-12-18T09:15:55.662Z,134.15
2022-12-18T09:18:24.127Z,132.85
2022-12-18T09:20:54.219Z,121.93
2022-12-18T09:23:21.718Z,133.60
2022-12-18T09:25:48.951Z,139.00
2022-12-18T09:28:17.850Z,122.50
2022-12-18T09:30:48.597Z,119.10
2022-12-18T09:33:16.315Z,135.63
2022-12-18T09:35:44.834Z,138.50
2022-12-18T09:38:17.359Z,133.32
2022-12-18T09:40:49.420Z,124.45
2022-12-18T09:43:24.115Z,138.02
2022-12-18T09:45:56.205Z,148.23
2022-12-18T09:48:35.248Z,125.07
2022-12-18T09:51:16.113Z,123.38
2022-12-18T09:53:48.232Z,122.80
2022-12-18T09:56:19.462Z,140.80
2022-12-18T09:59:05.530Z,140.23
2022-12-18T10:01:43.171Z,133.88
2022-12-18T10:04:11.255Z,125.55
2022-12-18T10:06:50.014Z,126.55
2022-12-18T10:09:40.644Z,121.68
2022-12-18T10:12:33.612Z,127.63
2022-12-18T10:15:00.248Z,139.30
2022-12-18T10:17:48.685Z,140.82
2022-12-18T10:20:38.131Z,122.75
2022-12-18T10:23:26.053Z,120.07
2022-12-18T10:26:11.211Z,137.25
2022-12-18T10:28:40.470Z,126.72
2022-12-18T10:31:14.984Z,125.72
2022-12-18T10:33:42.312Z,123.63
2022-12-18T10:36:09.061Z,134.18
2022-12-18T10:38:35.706Z,137.55
2022-12-18T10:41:05.538Z,128.00
2022-12-18T10:43:35.621Z,135.20
2022-12-18T10:46:08.472Z,130.25
2022-12-18T10:48:41.380Z,118.22
2022-12-18T10:51:12.363Z,133.00
2022-12-18T10:53:44.009Z,136.45
2022-12-18T10:56:11.680Z,129.50
2022-12-18T10:58:40.371Z,124.05
2022-12-18T11:01:18.789Z,146.80
2022-12-18T11:04:02.316Z,157.40
2022-12-18T11:06:30.235Z,133.60
2022-12-18T11:09:13.340Z,131.77
2022-12-18T11:11:41.934Z,136.50
2022-12-18T11:14:23.846Z,137.55
2022-12-18T11:19:42.160Z,132.88
2022-12-18T11:22:25.360Z,137.07
2022-12-18T11:28:21.748Z,120.55
2022-12-18T11:30:48.506Z,128.73
2022-12-18T11:33:23.695Z,129.65
2022-12-18T11:35:53.875Z,126.03
2022-12-18T11:38:26.801Z,118.45
2022-12-18T11:41:05.443Z,115.93
2022-12-18T11:43:41.867Z,126.72
2022-12-18T11:46:19.581Z,119.68
2022-12-18T11:49:13.322Z,128.30
2022-12-18T11:52:10.916Z,119.70
2022-12-18T11:54:37.573Z,127.88
2022-12-18T11:57:35.911Z,126.63
2022-12-18T12:00:08.569Z,127.20
2022-12-18T12:03:01.095Z,139.35
2022-12-18T12:05:48.197Z,118.60
2022-12-18T12:08:49.104Z,129.27
2022-12-18T12:11:31.050Z,124.70
2022-12-18T12:14:03.656Z,117.53
2022-12-18T12:16:33.038Z,125.93
2022-12-18T12:19:44.536Z,150.02
2022-12-18T12:22:36.209Z,179.15
2022-12-18T12:25:05.559Z,157.95
2022-12-18T12:27:50.747Z,165.85
2022-12-18T12:30:26.075Z,166.57
2022-12-18T12:33:17.611Z,155.47
2022-12-18T12:35:50.001Z,160.35
2022-12-18T12:38:38.120Z,139.60
2022-12-18T12:41:30.582Z,160.18
2022-12-18T12:44:03.070Z,176.63
2022-12-18T12:46:33.618Z,182.25
2022-12-18T12:49:05.248Z,186.35
2022-12-18T12:51:41.780Z,187.38
2022-12-18T12:54:18.535Z,183.82
2022-12-18T12:56:55.702Z,185.07
2022-12-18T12:59:41.184Z,175.65
2022-12-18T13:02:13.995Z,172.23
2022-12-18T13:04:50.982Z,184.00
2022-12-18T13:07:47.184Z,177.77
2022-12-18T13:10:17.862Z,183.75
2022-12-18T13:13:17.919Z,187.27
2022-12-18T13:16:05.858Z,165.05
2022-12-18T13:18:34.504Z,167.20
2022-12-18T13:21:03.231Z,173.27
2022-12-18T13:23:40.868Z,167.68
2022-12-18T13:26:07.614Z,168.00
2022-12-18T13:28:34.880Z,167.38
2022-12-18T13:31:05.128Z,162.93
2022-12-18T13:33:34.759Z,165.00
2022-12-18T13:36:16.811Z,169.35
2022-12-18T13:38:45.737Z,178.65
2022-12-18T13:41:15.798Z,172.70
2022-12-18T13:43:53.364Z,177.15
2022-12-18T13:46:27.918Z,157.55
2022-12-18T13:49:19.373Z,175.48
2022-12-18T13:51:50.757Z,156.48
2022-12-18T13:54:31.355Z,173.02
2022-12-18T13:56:58.081Z,169.20
2022-12-18T13:59:42.839Z,173.40
2022-12-18T14:02:25.261Z,165.27
2022-12-18T14:04:53.022Z,172.65
2022-12-18T14:07:30.445Z,164.60
2022-12-18T14:10:26.109Z,173.18
2022-12-18T14:13:00.368Z,159.93
2022-12-18T14:15:35.001Z,166.27
2022-12-18T14:18:09.848Z,160.70
2022-12-18T14:20:36.877Z,155.85
2022-12-18T14:23:04.160Z,155.18
2022-12-18T14:25:31.693Z,163.02
2022-12-18T14:28:11.302Z,159.35
2022-12-18T14:30:40.575Z,160.77
2022-12-18T14:33:15.300Z,158.98
2022-12-18T14:35:53.351Z,158.48
2022-12-18T14:38:36.451Z,170.98
2022-12-18T14:41:06.024Z,170.02
2022-12-18T14:43:35.141Z,162.80
2022-12-18T14:46:04.163Z,162.90
2022-12-18T14:48:42.870Z,154.02
2022-12-18T14:51:22.653Z,161.32
2022-12-18T14:54:00.855Z,170.65
2022-12-18T14:56:29.295Z,159.73
2022-12-18T14:58:59.618Z,159.93
2022-12-18T15:01:28.354Z,159.68
2022-12-18T15:03:57.107Z,165.32
2022-12-18T15:06:44.387Z,156.25
2022-12-18T15:09:25.969Z,165.73
2022-12-18T15:11:58.787Z,161.88
2022-12-18T15:14:36.315Z,153.35
2022-12-18T15:17:06.229Z,160.93
2022-12-18T15:19:40.465Z,170.98
2022-12-18T15:22:28.741Z,158.43
2022-12-18T15:24:57.358Z,169.35
2022-12-18T15:27:27.892Z,162.32
2022-12-18T15:30:06.461Z,162.90
2022-12-18T15:32:33.154Z,157.23
2022-12-18T15:35:23.771Z,161.32
2022-12-18T15:37:52.350Z,168.88
2022-12-18T15:40:24.933Z,168.82
2022-12-18T15:43:14.763Z,171.80
2022-12-18T15:45:41.516Z,159.82
2022-12-18T15:48:35.560Z,153.68
2022-12-18T15:51:04.835Z,154.38
2022-12-18T15:53:34.736Z,160.98
2022-12-18T15:56:20.156Z,154.10
2022-12-18T15:58:46.980Z,160.32
2022-12-18T16:01:14.342Z,153.90
2022-12-18T16:03:41.576Z,153.75
2022-12-18T16:06:10.400Z,150.82
2022-12-18T16:08:37.050Z,154.25
2022-12-18T16:11:04.302Z,161.77
2022-12-18T16:13:31.041Z,161.18
2022-12-18T16:15:57.964Z,165.73
2022-12-18T16:18:24.667Z,163.80
2022-12-18T16:20:51.453Z,156.48
2022-12-18T16:23:18.100Z,171.45
2022-12-18T16:25:44.847Z,177.45
2022-12-18T16:28:11.504Z,162.07
2022-12-18T16:30:38.824Z,152.15
2022-12-18T16:33:07.230Z,152.05
2022-12-18T16:35:34.799Z,163.32
2022-12-18T16:38:01.606Z,177.65
2022-12-18T16:40:28.296Z,165.18
2022-12-18T16:42:54.921Z,169.85
2022-12-18T16:45:21.569Z,178.10
2022-12-18T16:47:48.268Z,165.63
2022-12-18T16:50:14.928Z,168.90
2022-12-18T16:52:41.766Z,160.98
2022-12-18T16:55:08.929Z,157.57
2022-12-18T16:57:35.821Z,160.05
2022-12-18T17:00:05.460Z,164.88
2022-12-18T17:02:33.499Z,159.15
2022-12-18T17:05:00.542Z,160.90
2022-12-18T17:07:30.707Z,157.30
2022-12-18T17:09:57.970Z,168.15
2022-12-18T17:12:25.014Z,168.65
2022-12-18T17:14:51.647Z,175.73
2022-12-18T17:17:21.410Z,163.05
2022-12-18T17:19:49.081Z,163.98
2022-12-18T17:22:15.775Z,151.27
2022-12-18T17:24:42.482Z,154.73
2022-12-18T17:27:09.110Z,169.20
2022-12-18T17:29:36.107Z,154.25
2022-12-18T17:32:02.909Z,168.57
2022-12-18T17:34:30.044Z,162.52
2022-12-18T17:36:57.646Z,161.15
2022-12-18T17:39:24.407Z,150.77
2022-12-18T17:41:51.080Z,155.00
2022-12-18T17:44:18.787Z,149.95
2022-12-18T17:46:48.725Z,162.57
2022-12-18T17:49:15.510Z,157.48
2022-12-18T17:51:43.213Z,159.38
2022-12-18T17:54:10.678Z,163.82
2022-12-18T17:56:38.047Z,151.00
2022-12-18T17:59:04.862Z,155.68
2022-12-18T18:01:31.663Z,169.35
2022-12-18T18:04:00.338Z,160.68
2022-12-18T18:06:27.216Z,154.57
2022-12-18T18:08:54.420Z,161.00
2022-12-18T18:11:41.769Z,164.80
2022-12-18T18:14:16.068Z,160.18
2022-12-18T18:16:45.307Z,166.77
2022-12-18T18:19:15.571Z,175.88
2022-12-18T18:21:44.610Z,158.60
2022-12-18T18:24:14.151Z,166.27
2022-12-18T18:26:44.292Z,150.63
2022-12-18T18:29:19.646Z,155.32
2022-12-18T18:31:47.752Z,162.60
2022-12-18T18:34:22.744Z,168.60
2022-12-18T18:36:49.574Z,161.77
2022-12-18T18:39:16.513Z,156.05
2022-12-18T18:41:47.893Z,158.23
2022-12-18T18:44:16.133Z,170.77
2022-12-18T18:46:42.785Z,154.35
2022-12-18T18:49:09.776Z,153.90
2022-12-18T18:51:36.465Z,158.40
2022-12-18T18:54:03.358Z,156.98
2022-12-18T18:59:18.249Z,153.00
2022-12-18T19:01:45.083Z,169.20
2022-12-18T19:04:12.574Z,170.00
2022-12-18T19:06:39.311Z,161.95
2022-12-18T19:09:06.768Z,164.85
2022-12-18T19:11:52.765Z,186.15
2022-12-18T19:14:20.331Z,174.77
2022-12-18T19:16:47.082Z,166.70
2022-12-18T19:19:17.168Z,176.68
2022-12-18T19:21:44.059Z,174.98
2022-12-18T19:24:10.748Z,152.93
2022-12-18T19:26:37.848Z,165.30
2022-12-18T19:29:11.177Z,176.80
2022-12-18T19:31:38.469Z,154.75
2022-12-18T19:34:07.121Z,158.48
2022-12-18T19:36:36.980Z,150.35
2022-12-18T19:39:13.741Z,149.88
2022-12-18T19:41:41.005Z,148.48
2022-12-18T19:44:08.783Z,153.82
2022-12-18T19:46:37.171Z,156.75
2022-12-18T19:49:10.349Z,155.32
2022-12-18T19:51:37.023Z,156.27
2022-12-18T19:54:04.371Z,157.52
2022-12-18T19:56:33.620Z,151.77
2022-12-18T19:59:01.201Z,157.95
2022-12-18T20:01:29.546Z,161.18
2022-12-18T20:03:57.046Z,152.18
2022-12-18T20:06:31.911Z,161.18
2022-12-18T20:09:05.401Z,155.05
2022-12-18T20:11:33.691Z,150.15
2022-12-18T20:14:05.193Z,155.30
2022-12-18T20:16:32.114Z,153.82
2022-12-18T20:18:59.063Z,152.30
2022-12-18T20:21:25.984Z,153.90
2022-12-18T20:23:53.188Z,153.10
2022-12-18T20:26:19.838Z,220.93
2022-12-18T20:28:46.517Z,168.23
2022-12-18T20:31:14.167Z,163.30
2022-12-18T20:33:42.181Z,152.57
2022-12-18T20:36:14.403Z,153.38
2022-12-18T20:38:42.721Z,159.80
2022-12-18T20:41:17.127Z,160.98
2022-12-18T20:43:44.516Z,227.68
2022-12-18T20:46:13.737Z,168.90
2022-12-18T20:48:41.367Z,166.90
2022-12-18T20:51:10.788Z,171.40
2022-12-18T20:53:40.718Z,162.15
2022-12-18T20:56:11.955Z,159.63
2022-12-18T20:58:38.819Z,168.65
2022-12-18T21:01:14.208Z,149.82
2022-12-18T21:03:42.179Z,158.65
2022-12-18T21:06:10.351Z,156.00
2022-12-18T21:08:37.694Z,155.20
2022-12-18T21:11:32.062Z,156.70
2022-12-18T21:13:59.395Z,150.57
2022-12-18T21:16:26.269Z,170.57
2022-12-18T21:18:53.394Z,162.27
2022-12-18T21:21:26.370Z,148.27
2022-12-18T21:23:54.048Z,155.98
2022-12-18T21:26:23.915Z,148.40
2022-12-18T21:28:59.873Z,166.52
2022-12-18T21:31:32.870Z,151.95
2022-12-18T21:34:02.022Z,151.95
2022-12-18T21:36:30.656Z,158.00
2022-12-18T21:38:58.799Z,159.68
2022-12-18T21:41:45.687Z,157.23
2022-12-18T21:46:51.368Z,141.90
2022-12-18T21:49:22.563Z,151.25
2022-12-18T21:51:51.607Z,155.48
2022-12-18T21:54:19.765Z,157.48
2022-12-18T21:56:55.397Z,155.38
2022-12-18T21:59:21.984Z,158.55
2022-12-18T22:01:49.841Z,160.80
2022-12-18T22:04:18.261Z,150.20
2022-12-18T22:06:46.228Z,149.48
2022-12-18T22:09:15.733Z,147.50
2022-12-18T22:11:42.568Z,153.85
2022-12-18T22:14:09.602Z,147.35
2022-12-18T22:16:36.714Z,153.43
2022-12-18T22:19:04.684Z,148.73
2022-12-18T22:21:34.544Z,151.68
2022-12-18T22:24:16.421Z,151.85
2022-12-18T22:26:43.553Z,157.77
2022-12-18T22:29:37.769Z,152.60
2022-12-18T22:32:06.342Z,150.82
2022-12-18T22:34:36.578Z,151.07
2022-12-18T22:37:03.789Z,157.70
2022-12-18T22:39:30.587Z,160.27
2022-12-18T22:41:58.258Z,156.00
2022-12-18T22:44:25.067Z,156.63
2022-12-18T22:47:06.536Z,159.20
2022-12-18T22:49:35.655Z,149.32
2022-12-18T22:52:07.519Z,166.93
2022-12-18T22:54:34.397Z,148.65
2022-12-18T22:57:01.034Z,144.23
2022-12-18T22:59:27.738Z,149.65
2022-12-18T23:01:59.096Z,152.98
2022-12-18T23:04:30.624Z,142.07
2022-12-18T23:07:04.202Z,161.63
2022-12-18T23:09:31.116Z,155.93
2022-12-18T23:11:57.823Z,145.18
2022-12-18T23:14:24.530Z,162.95
2022-12-18T23:16:53.069Z,141.25
2022-12-18T23:19:20.186Z,150.10
2022-12-18T23:21:47.497Z,152.07
2022-12-18T23:24:14.367Z,152.35
2022-12-18T23:26:41.463Z,150.73
2022-12-18T23:29:08.367Z,154.20
2022-12-18T23:31:37.538Z,163.95
2022-12-18T23:34:05.606Z,160.77
2022-12-18T23:36:35.895Z,162.70
2022-12-18T23:39:17.436Z,152.00
2022-12-18T23:41:59.202Z,150.13
2022-12-18T23:44:26.261Z,160.60
2022-12-18T23:46:53.372Z,157.27
2022-12-18T23:49:20.172Z,160.77
2022-12-18T23:51:46.862Z,155.50
2022-12-18T23:54:13.636Z,169.52
2022-12-18T23:56:40.247Z,159.10
2022-12-18T23:59:09.942Z,146.27
